This is the latest recevied weather packets stored in our database for station/object SP9MUF-14. If no packets are shown the sender has not sent any weather packets the latest 1 day(s).
| Time | Temp. | Humidity | Pressure | Rain* | Wind** | Luminosity | Snow |
|---|---|---|---|---|---|---|---|
| 1778081328 | 21.67° C | 45% | 1005.6 hPa | 0 mm | - | 8 W/m² | - |
| 1778078593 | 26.67° C | 33% | 1004.9 hPa | 0 mm | - | 233 W/m² | - |
| 1778070992 | 25.56° C | 35% | 1005.6 hPa | 0 mm | - | 625 W/m² | - |
| 1778067648 | 23.89° C | 38% | 1006.2 hPa | 0 mm | - | 549 W/m² | - |
| 1778043023 | 15° C | 60% | 1006.3 hPa | 0 mm | - | 24 W/m² | - |
| 1778040895 | 15° C | 56% | 1005.9 hPa | 0 mm | - | 14 W/m² | - |
| 1778039678 | 15° C | 55% | 1005.9 hPa | 0 mm | - | 11 W/m² | - |
| 1778039374 | 15° C | 54% | 1005.9 hPa | 0 mm | - | 11 W/m² | - |
| 1778039070 | 15.56° C | 53% | 1005.8 hPa | 0 mm | - | 9 W/m² | - |
| 1778038767 | 15.56° C | 52% | 1005.7 hPa | 0 mm | - | 8 W/m² | - |
| 1778037551 | 17.78° C | 46% | 1005.6 hPa | 0 mm | - | 3 W/m² | - |
| 1778037247 | 17.78° C | 45% | 1005.7 hPa | 0 mm | - | 2 W/m² | - |
| 1778036031 | 16.67° C | 45% | 1005.6 hPa | 0 mm | - | 0 W/m² | - |
| 1778035423 | 17.78° C | 45% | 1005.5 hPa | 0 mm | - | 0 W/m² | - |
| 1778034512 | 17.78° C | 45% | 1005.5 hPa | 0 mm | - | 0 W/m² | - |
| 1778033904 | 17.78° C | 44% | 1005.4 hPa | 0 mm | - | 0 W/m² | - |
| 1778033600 | 17.78° C | 44% | 1005.5 hPa | 0 mm | - | 0 W/m² | - |
| 1778032080 | 17.78° C | 43% | 1005.6 hPa | 0 mm | - | 0 W/m² | - |
| 1778031472 | 17.78° C | 44% | 1005.8 hPa | 0 mm | - | 0 W/m² | - |
| 1778031168 | 17.78° C | 44% | 1005.9 hPa | 0 mm | - | 0 W/m² | - |
| 1778030256 | 17.78° C | 42% | 1005.7 hPa | 0 mm | - | 0 W/m² | - |
| 1778029952 | 17.78° C | 42% | 1005.7 hPa | 0 mm | - | 0 W/m² | - |
| 1778029648 | 18.89° C | 41% | 1005.8 hPa | 0 mm | - | 0 W/m² | - |
| 1778028737 | 18.89° C | 41% | 1005.7 hPa | 0 mm | - | 0 W/m² | - |
| 1778028433 | 17.78° C | 41% | 1005.7 hPa | 0 mm | - | 0 W/m² | - |
* Rain latest hour (hover to see other rain measurements)
** Current wind speed in m/s (hover to see current wind gust speed)